createdAt,value
2022-09-07T00:00:42.641Z,10.25
2022-09-07T00:03:09.655Z,10.52
2022-09-07T00:05:43.993Z,9.98
2022-09-07T00:08:11.667Z,10.35
2022-09-07T00:10:38.894Z,10.52
2022-09-07T00:13:07.046Z,10.07
2022-09-07T00:15:34.203Z,10.35
2022-09-07T00:18:00.915Z,10.77
2022-09-07T00:20:27.631Z,10.60
2022-09-07T00:22:54.387Z,11.98
2022-09-07T00:25:21.117Z,10.23
2022-09-07T00:27:47.871Z,10.93
2022-09-07T00:30:14.610Z,10.90
2022-09-07T00:32:41.371Z,10.60
2022-09-07T00:35:08.473Z,10.57
2022-09-07T00:37:35.233Z,10.70
2022-09-07T00:40:02.393Z,11.07
2022-09-07T00:42:29.197Z,10.38
2022-09-07T00:45:12.134Z,10.20
2022-09-07T00:47:45.538Z,10.63
2022-09-07T00:50:19.294Z,10.45
2022-09-07T00:52:50.759Z,9.23
2022-09-07T00:55:19.109Z,9.90
2022-09-07T00:57:50.125Z,10.20
2022-09-07T01:00:17.408Z,9.95
2022-09-07T01:02:45.511Z,10.27
2022-09-07T01:05:46.271Z,10.13
2022-09-07T01:08:14.075Z,9.98
2022-09-07T01:10:40.824Z,10.32
2022-09-07T01:13:08.464Z,10.45
2022-09-07T01:16:02.520Z,10.35
2022-09-07T01:18:42.794Z,11.00
2022-09-07T01:21:22.109Z,10.40
2022-09-07T01:24:17.603Z,9.98
2022-09-07T01:27:18.018Z,10.43
2022-09-07T01:30:08.122Z,10.13
2022-09-07T01:32:49.879Z,9.95
2022-09-07T01:35:43.865Z,10.23
2022-09-07T01:38:31.992Z,11.60
2022-09-07T01:41:07.777Z,10.63
2022-09-07T01:43:41.558Z,11.15
2022-09-07T01:46:34.412Z,11.52
2022-09-07T01:49:08.454Z,12.05
2022-09-07T01:51:41.021Z,12.07
2022-09-07T01:54:42.048Z,13.95
2022-09-07T01:57:18.746Z,14.13
2022-09-07T01:59:52.433Z,14.38
2022-09-07T02:02:30.175Z,14.32
2022-09-07T02:05:14.570Z,15.38
2022-09-07T02:08:24.354Z,14.77
2022-09-07T02:11:20.171Z,16.55
2022-09-07T02:13:52.270Z,16.45
2022-09-07T02:16:25.755Z,16.58
2022-09-07T02:18:56.747Z,15.98
2022-09-07T02:21:41.620Z,15.80
2022-09-07T02:24:31.124Z,16.42
2022-09-07T02:26:59.591Z,16.02
2022-09-07T02:29:30.787Z,15.88
2022-09-07T02:31:57.853Z,15.80
2022-09-07T02:34:24.795Z,16.15
2022-09-07T02:36:53.736Z,16.17
2022-09-07T02:39:20.635Z,16.45
2022-09-07T02:41:47.501Z,16.95
2022-09-07T02:44:21.120Z,16.67
2022-09-07T02:47:13.106Z,15.45
2022-09-07T02:49:49.347Z,15.48
2022-09-07T02:52:44.333Z,15.20
2022-09-07T02:55:34.450Z,15.38
2022-09-07T02:58:10.127Z,14.95
2022-09-07T03:01:02.235Z,14.38
2022-09-07T03:03:49.278Z,15.20
2022-09-07T03:06:26.509Z,15.07
2022-09-07T03:08:56.225Z,14.73
2022-09-07T03:11:23.606Z,15.77
2022-09-07T03:13:50.354Z,15.73
2022-09-07T03:16:17.472Z,15.57
2022-09-07T03:18:44.555Z,15.73
2022-09-07T03:21:11.644Z,15.68
2022-09-07T03:23:38.867Z,15.77
2022-09-07T03:26:05.935Z,16.13
2022-09-07T03:28:32.691Z,15.77
2022-09-07T03:31:02.096Z,15.50
2022-09-07T03:33:28.979Z,15.05
2022-09-07T03:36:02.391Z,16.17
2022-09-07T03:38:30.808Z,15.70
2022-09-07T03:41:02.674Z,16.05
2022-09-07T03:43:31.021Z,15.77
2022-09-07T03:46:03.397Z,16.65
2022-09-07T03:48:32.037Z,16.52
2022-09-07T03:51:01.708Z,16.27
2022-09-07T03:53:34.053Z,15.60
2022-09-07T03:56:03.974Z,16.63
2022-09-07T03:58:32.687Z,17.10
2022-09-07T04:01:04.648Z,18.67
2022-09-07T04:03:31.487Z,17.42
2022-09-07T04:06:02.000Z,17.05
2022-09-07T04:08:34.400Z,18.73
2022-09-07T04:11:03.117Z,17.33
2022-09-07T04:13:30.742Z,16.38
2022-09-07T04:15:57.814Z,18.52
2022-09-07T04:18:25.364Z,17.00
2022-09-07T04:20:52.411Z,16.90
2022-09-07T04:23:19.757Z,15.80
2022-09-07T04:25:51.041Z,18.33
2022-09-07T04:28:20.499Z,17.95
2022-09-07T04:30:47.448Z,17.13
2022-09-07T04:33:15.433Z,16.60
2022-09-07T04:35:43.587Z,16.58
2022-09-07T04:38:14.237Z,17.05
2022-09-07T04:40:41.356Z,18.67
2022-09-07T04:43:09.559Z,20.02
2022-09-07T04:45:37.407Z,20.38
2022-09-07T04:48:05.136Z,19.98
2022-09-07T04:50:32.666Z,23.38
2022-09-07T04:52:59.439Z,21.95
2022-09-07T04:55:26.273Z,21.45
2022-09-07T04:57:53.013Z,22.42
2022-09-07T05:00:19.776Z,22.10
2022-09-07T05:02:46.755Z,21.90
2022-09-07T05:05:13.752Z,22.90
2022-09-07T05:07:40.590Z,22.27
2022-09-07T05:10:07.663Z,20.55
2022-09-07T05:12:34.439Z,21.70
2022-09-07T05:15:01.650Z,22.58
2022-09-07T05:17:31.005Z,22.30
2022-09-07T05:19:58.157Z,21.98
2022-09-07T05:22:27.583Z,22.05
2022-09-07T05:24:54.363Z,21.83
2022-09-07T05:27:21.111Z,22.10
2022-09-07T05:30:04.477Z,21.05
2022-09-07T05:32:32.084Z,21.75
2022-09-07T05:34:58.901Z,21.70
2022-09-07T05:37:25.606Z,20.63
2022-09-07T05:39:55.035Z,20.02
2022-09-07T05:42:22.724Z,19.30
2022-09-07T05:44:49.446Z,19.13
2022-09-07T05:47:16.323Z,18.67
2022-09-07T05:49:43.141Z,19.30
2022-09-07T05:52:10.592Z,19.02
2022-09-07T05:54:37.409Z,18.13
2022-09-07T05:57:04.408Z,19.17
2022-09-07T05:59:31.244Z,19.67
2022-09-07T06:01:58.049Z,19.73
2022-09-07T06:04:24.918Z,19.38
2022-09-07T06:07:20.132Z,19.48
2022-09-07T06:12:25.800Z,18.80
2022-09-07T06:14:52.536Z,18.77
2022-09-07T06:17:19.692Z,19.58
2022-09-07T06:19:46.411Z,19.60
2022-09-07T06:22:13.336Z,18.77
2022-09-07T06:24:40.057Z,19.92
2022-09-07T06:27:06.812Z,21.27
2022-09-07T06:29:33.546Z,20.58
2022-09-07T06:34:47.043Z,18.52
2022-09-07T06:37:14.042Z,20.08
2022-09-07T06:39:40.844Z,22.05
2022-09-07T06:42:07.615Z,19.77
2022-09-07T06:44:34.681Z,20.38
2022-09-07T06:49:33.230Z,19.70
2022-09-07T06:51:59.998Z,21.40
2022-09-07T06:57:13.619Z,20.15
2022-09-07T06:59:40.415Z,21.33
2022-09-07T07:02:09.505Z,21.50
2022-09-07T07:04:40.628Z,20.92
2022-09-07T07:07:14.343Z,20.20
2022-09-07T07:09:42.016Z,18.75
2022-09-07T07:12:10.068Z,18.23
2022-09-07T07:14:39.719Z,19.95
2022-09-07T07:17:10.242Z,16.45
2022-09-07T07:19:37.003Z,15.40
2022-09-07T07:22:42.958Z,14.43
2022-09-07T07:24:50.449Z,12.80
2022-09-07T07:27:17.575Z,13.23
2022-09-07T07:29:44.454Z,9.75
2022-09-07T07:32:11.178Z,11.23
2022-09-07T07:34:38.067Z,12.27
2022-09-07T07:37:04.850Z,11.05
2022-09-07T07:42:18.479Z,8.30
2022-09-07T07:44:45.276Z,9.77
2022-09-07T07:47:12.067Z,7.90
2022-09-07T07:49:38.733Z,9.13
2022-09-07T07:54:53.089Z,6.05
2022-09-07T07:57:19.853Z,9.48
2022-09-07T07:59:46.560Z,6.10
2022-09-07T08:02:17.270Z,7.50
2022-09-07T08:04:44.264Z,6.03
2022-09-07T08:07:12.466Z,6.72
2022-09-07T08:09:40.741Z,6.38
2022-09-07T08:12:08.475Z,4.63
2022-09-07T08:14:40.612Z,7.47
2022-09-07T08:17:08.712Z,6.25
2022-09-07T08:19:36.027Z,8.57
2022-09-07T08:22:03.863Z,4.75
2022-09-07T08:24:31.976Z,5.53
2022-09-07T08:26:58.888Z,3.97
2022-09-07T08:29:25.568Z,6.65
2022-09-07T08:31:52.378Z,5.05
2022-09-07T08:34:19.272Z,6.18
2022-09-07T08:36:46.015Z,5.25
2022-09-07T08:39:13.081Z,5.55
2022-09-07T08:41:55.123Z,7.05
2022-09-07T08:44:27.636Z,8.05
2022-09-07T08:46:54.440Z,7.15
2022-09-07T08:49:46.515Z,5.93
2022-09-07T08:52:21.487Z,5.00
2022-09-07T08:55:00.515Z,6.88
2022-09-07T08:57:31.200Z,5.80
2022-09-07T09:00:13.884Z,5.05
2022-09-07T09:02:44.277Z,6.22
2022-09-07T09:05:35.958Z,5.30
2022-09-07T09:08:18.293Z,7.70
2022-09-07T09:11:29.493Z,5.72
2022-09-07T09:14:10.498Z,3.50
2022-09-07T09:16:43.652Z,4.38
2022-09-07T09:19:41.383Z,4.93
2022-09-07T09:22:15.696Z,5.15
2022-09-07T09:24:55.605Z,5.43
2022-09-07T09:27:22.571Z,4.28
2022-09-07T09:29:49.374Z,2.70
2022-09-07T09:32:39.847Z,7.95
2022-09-07T09:35:28.791Z,3.22
2022-09-07T09:37:57.739Z,5.45
2022-09-07T09:40:36.930Z,3.78
2022-09-07T09:43:18.328Z,3.38
2022-09-07T09:48:40.391Z,4.05
2022-09-07T09:54:00.006Z,4.13
2022-09-07T09:56:43.758Z,4.00
2022-09-07T10:05:36.260Z,2.50
2022-09-07T10:08:15.208Z,3.42
2022-09-07T10:11:15.572Z,5.57
2022-09-07T10:13:55.741Z,2.85
2022-09-07T10:16:39.228Z,2.72
2022-09-07T10:19:06.086Z,2.17
2022-09-07T10:21:33.228Z,4.88
2022-09-07T10:24:00.939Z,3.42
2022-09-07T10:26:33.362Z,5.13
2022-09-07T10:29:14.009Z,3.08
2022-09-07T10:32:19.773Z,4.57
2022-09-07T10:35:22.451Z,3.55
2022-09-07T10:38:04.127Z,3.20
2022-09-07T10:40:58.598Z,1.75
2022-09-07T10:43:47.206Z,2.40
2022-09-07T10:46:59.658Z,2.60
2022-09-07T10:52:39.169Z,2.80
2022-09-07T10:55:35.736Z,3.38
2022-09-07T10:59:01.394Z,3.67
2022-09-07T11:01:26.892Z,2.95
2022-09-07T11:03:53.736Z,4.35
2022-09-07T11:06:27.066Z,3.15
2022-09-07T11:09:30.539Z,4.38
2022-09-07T11:12:21.307Z,3.15
2022-09-07T11:14:56.146Z,3.83
2022-09-07T11:17:26.527Z,3.17
2022-09-07T11:20:08.874Z,3.83
2022-09-07T11:22:43.449Z,2.05
2022-09-07T11:25:31.593Z,1.98
2022-09-07T11:28:22.905Z,3.03
2022-09-07T11:31:04.249Z,3.03
2022-09-07T11:33:37.716Z,5.32
2022-09-07T11:36:16.500Z,2.47
2022-09-07T11:38:51.266Z,3.72
2022-09-07T11:41:22.875Z,2.70
2022-09-07T11:44:21.828Z,2.70
2022-09-07T11:46:53.253Z,2.88
2022-09-07T11:49:25.996Z,3.25
2022-09-07T11:52:05.279Z,2.72
2022-09-07T11:54:45.803Z,2.25
2022-09-07T11:57:15.317Z,4.68
2022-09-07T12:00:00.747Z,2.55
2022-09-07T12:03:00.285Z,4.97
2022-09-07T12:05:48.879Z,4.47
2022-09-07T12:08:31.107Z,3.72
2022-09-07T12:11:08.282Z,2.90
2022-09-07T12:13:50.731Z,4.65
2022-09-07T12:16:36.594Z,2.33
2022-09-07T12:19:19.073Z,4.28
2022-09-07T12:21:55.200Z,6.75
2022-09-07T12:24:42.133Z,3.75
2022-09-07T12:27:10.284Z,4.28
2022-09-07T12:29:45.159Z,2.80
2022-09-07T12:34:59.877Z,3.67
2022-09-07T12:37:26.750Z,2.38
2022-09-07T12:40:28.597Z,2.05
2022-09-07T12:43:13.488Z,3.03
2022-09-07T12:45:40.311Z,2.15
2022-09-07T12:48:15.943Z,4.65
2022-09-07T12:54:32.776Z,3.33
2022-09-07T12:57:29.693Z,5.80
2022-09-07T13:00:20.749Z,2.72
2022-09-07T13:02:57.813Z,3.35
2022-09-07T13:05:30.673Z,3.80
2022-09-07T13:08:08.847Z,4.15
2022-09-07T13:10:43.408Z,2.17
2022-09-07T13:13:16.828Z,3.63
2022-09-07T13:15:48.873Z,4.88
2022-09-07T13:18:28.494Z,3.25
2022-09-07T13:21:07.345Z,3.30
2022-09-07T13:23:38.136Z,4.13
2022-09-07T13:26:09.088Z,4.15
2022-09-07T13:28:58.096Z,3.78
2022-09-07T13:31:48.490Z,3.75
2022-09-07T13:34:54.591Z,3.45
2022-09-07T13:37:26.237Z,4.85
2022-09-07T13:39:58.281Z,3.80
2022-09-07T13:42:31.840Z,4.43
2022-09-07T13:45:05.122Z,4.10
2022-09-07T13:47:35.258Z,5.22
2022-09-07T13:50:36.300Z,2.88
2022-09-07T13:53:12.197Z,3.28
2022-09-07T13:56:01.102Z,3.60
2022-09-07T13:58:37.829Z,3.80
2022-09-07T14:01:21.829Z,3.88
2022-09-07T14:03:52.726Z,6.10
2022-09-07T14:06:22.429Z,3.35
2022-09-07T14:08:58.597Z,4.68
2022-09-07T14:11:49.179Z,5.70
2022-09-07T14:14:20.548Z,4.22
2022-09-07T14:17:00.938Z,3.10
2022-09-07T14:19:41.425Z,4.00
2022-09-07T14:22:18.566Z,4.20
2022-09-07T14:24:55.577Z,4.35
2022-09-07T14:27:41.134Z,3.55
2022-09-07T14:30:25.646Z,5.30
2022-09-07T14:33:03.879Z,6.53
2022-09-07T14:35:34.952Z,4.30
2022-09-07T14:41:15.846Z,5.45
2022-09-07T14:43:56.961Z,6.68
2022-09-07T14:46:25.917Z,5.50
2022-09-07T14:49:02.663Z,4.75
2022-09-07T14:51:36.102Z,4.50
2022-09-07T14:54:06.165Z,4.38
2022-09-07T14:56:41.620Z,4.57
2022-09-07T14:59:38.894Z,4.32
2022-09-07T15:02:26.990Z,5.00
2022-09-07T15:05:18.194Z,4.72
2022-09-07T15:07:54.446Z,3.95
2022-09-07T15:10:21.207Z,6.38
2022-09-07T15:13:22.392Z,4.45
2022-09-07T15:15:57.434Z,4.43
2022-09-07T15:18:47.256Z,5.85
2022-09-07T15:21:14.009Z,6.28
2022-09-07T15:23:40.779Z,2.80
2022-09-07T15:27:02.009Z,6.25
2022-09-07T15:29:13.435Z,5.88
2022-09-07T15:31:43.632Z,4.63
2022-09-07T15:34:13.722Z,3.72
2022-09-07T15:36:44.074Z,6.50
2022-09-07T15:39:22.596Z,4.72
2022-09-07T15:41:51.432Z,5.90
2022-09-07T15:44:22.849Z,3.00
2022-09-07T15:49:40.090Z,5.38
2022-09-07T15:52:09.097Z,3.90
2022-09-07T15:54:39.422Z,4.43
2022-09-07T15:59:53.753Z,3.85
2022-09-07T16:05:08.216Z,4.97
2022-09-07T16:10:21.863Z,6.18
2022-09-07T16:13:10.419Z,4.88
2022-09-07T16:15:36.001Z,4.82
2022-09-07T16:18:03.027Z,4.20
2022-09-07T16:20:32.759Z,4.40
2022-09-07T16:23:16.022Z,5.57
2022-09-07T16:25:54.248Z,3.60
2022-09-07T16:28:20.931Z,3.78
2022-09-07T16:30:48.159Z,4.20
2022-09-07T16:33:15.227Z,6.80
2022-09-07T16:35:42.223Z,3.67
2022-09-07T16:40:55.634Z,3.20
2022-09-07T16:43:22.345Z,3.03
2022-09-07T16:46:04.854Z,4.35
2022-09-07T16:48:34.095Z,5.07
2022-09-07T16:51:02.731Z,2.42
2022-09-07T16:53:31.646Z,3.30
2022-09-07T16:56:02.605Z,5.22
2022-09-07T16:58:38.338Z,3.67
2022-09-07T17:01:11.612Z,4.63
2022-09-07T17:03:39.337Z,4.80
2022-09-07T17:06:08.183Z,4.65
2022-09-07T17:08:36.466Z,2.70
2022-09-07T17:11:12.589Z,4.63
2022-09-07T17:13:40.691Z,2.80
2022-09-07T17:16:10.603Z,3.95
2022-09-07T17:21:24.719Z,4.50
2022-09-07T17:23:55.582Z,4.63
2022-09-07T17:26:26.695Z,3.88
2022-09-07T17:28:56.620Z,3.45
2022-09-07T17:34:19.767Z,5.25
2022-09-07T17:36:46.920Z,5.65
2022-09-07T17:39:15.017Z,2.65
2022-09-07T17:41:43.715Z,3.72
2022-09-07T17:44:10.550Z,5.70
2022-09-07T17:46:37.408Z,3.65
2022-09-07T17:49:05.213Z,10.18
2022-09-07T17:51:32.873Z,4.28
2022-09-07T17:54:09.708Z,4.63
2022-09-07T17:56:37.424Z,5.95
2022-09-07T18:01:51.180Z,4.32
2022-09-07T18:04:17.943Z,3.65
2022-09-07T18:06:44.711Z,6.47
2022-09-07T18:09:13.959Z,4.22
2022-09-07T18:11:47.085Z,6.25
2022-09-07T18:14:15.348Z,6.22
2022-09-07T18:16:44.389Z,5.03
2022-09-07T18:19:12.260Z,7.13
2022-09-07T18:21:41.841Z,4.25
2022-09-07T18:24:14.006Z,5.05
2022-09-07T18:26:41.173Z,4.22
2022-09-07T18:29:25.978Z,5.45
2022-09-07T18:31:54.957Z,6.18
2022-09-07T18:34:22.279Z,5.82
2022-09-07T18:36:49.068Z,5.70
2022-09-07T18:39:15.822Z,6.07
2022-09-07T18:41:42.663Z,4.85
2022-09-07T18:46:56.361Z,4.22
2022-09-07T18:49:23.557Z,4.65
2022-09-07T18:54:38.661Z,3.72
2022-09-07T18:57:06.689Z,5.25
2022-09-07T18:59:34.400Z,4.55
2022-09-07T19:02:04.339Z,5.10
2022-09-07T19:07:20.882Z,4.07
2022-09-07T19:09:48.510Z,5.78
2022-09-07T19:12:15.657Z,5.35
2022-09-07T19:14:42.465Z,5.45
2022-09-07T19:17:11.051Z,3.50
2022-09-07T19:19:39.637Z,5.10
2022-09-07T19:22:06.566Z,6.97
2022-09-07T19:24:33.464Z,4.20
2022-09-07T19:27:01.000Z,3.53
2022-09-07T19:29:28.592Z,3.95
2022-09-07T19:32:04.479Z,3.88
2022-09-07T19:34:33.134Z,4.13
2022-09-07T19:37:00.459Z,4.50
2022-09-07T19:39:27.824Z,5.97
2022-09-07T19:41:54.779Z,5.25
2022-09-07T19:44:21.472Z,4.22
2022-09-07T19:46:48.581Z,4.45
2022-09-07T19:49:15.423Z,4.45
2022-09-07T19:51:42.943Z,5.03
2022-09-07T19:54:11.097Z,6.10
2022-09-07T19:56:39.254Z,4.95
2022-09-07T19:59:06.195Z,4.47
2022-09-07T20:01:33.957Z,3.65
2022-09-07T20:04:10.787Z,4.78
2022-09-07T20:06:39.401Z,5.82
2022-09-07T20:09:07.999Z,6.40
2022-09-07T20:11:35.616Z,4.72
2022-09-07T20:14:02.532Z,3.90
2022-09-07T20:16:29.918Z,6.00
2022-09-07T20:18:57.281Z,2.65
2022-09-07T20:21:25.994Z,6.22
2022-09-07T20:23:52.728Z,3.65
2022-09-07T20:26:21.638Z,4.00
2022-09-07T20:29:05.912Z,2.35
2022-09-07T20:31:41.655Z,5.00
2022-09-07T20:34:09.582Z,4.57
2022-09-07T20:36:36.871Z,6.43
2022-09-07T20:39:06.985Z,3.65
2022-09-07T20:41:34.953Z,4.25
2022-09-07T20:44:03.303Z,6.03
2022-09-07T20:46:31.253Z,3.75
2022-09-07T20:48:58.619Z,6.10
2022-09-07T20:51:25.685Z,3.85
2022-09-07T20:53:52.702Z,3.30
2022-09-07T20:56:26.066Z,3.97
2022-09-07T20:58:57.857Z,5.28
2022-09-07T21:01:24.994Z,5.20
2022-09-07T21:03:54.058Z,4.35
2022-09-07T21:06:22.179Z,4.28
2022-09-07T21:08:49.940Z,5.88
2022-09-07T21:11:24.340Z,4.65
2022-09-07T21:14:07.147Z,3.45
2022-09-07T21:16:34.907Z,3.85
2022-09-07T21:19:02.901Z,3.67
2022-09-07T21:21:37.753Z,4.57
2022-09-07T21:24:06.007Z,6.07
2022-09-07T21:26:33.027Z,3.72
2022-09-07T21:29:01.953Z,3.45
2022-09-07T21:31:31.119Z,5.75
2022-09-07T21:34:00.534Z,2.83
2022-09-07T21:36:28.044Z,4.50
2022-09-07T21:38:55.825Z,3.97
2022-09-07T21:41:24.322Z,3.60
2022-09-07T21:44:00.573Z,6.03
2022-09-07T21:46:29.546Z,4.10
2022-09-07T21:48:58.058Z,4.97
2022-09-07T21:51:26.230Z,5.03
2022-09-07T21:53:58.279Z,4.30
2022-09-07T21:56:25.706Z,4.50
2022-09-07T21:58:56.858Z,5.30
2022-09-07T22:01:25.175Z,4.55
2022-09-07T22:04:03.892Z,6.53
2022-09-07T22:06:32.441Z,6.18
2022-09-07T22:08:59.854Z,5.70
2022-09-07T22:11:28.459Z,5.35
2022-09-07T22:14:01.497Z,4.47
2022-09-07T22:16:28.832Z,5.03
2022-09-07T22:18:55.727Z,4.07
2022-09-07T22:21:28.089Z,5.57
2022-09-07T22:23:57.498Z,4.63
2022-09-07T22:26:26.301Z,5.30
2022-09-07T22:28:53.081Z,6.30
2022-09-07T22:31:28.979Z,6.18
2022-09-07T22:33:57.305Z,4.25
2022-09-07T22:36:26.007Z,3.80
2022-09-07T22:38:54.923Z,7.25
2022-09-07T22:41:25.889Z,6.40
2022-09-07T22:43:52.640Z,6.05
2022-09-07T22:46:22.364Z,5.15
2022-09-07T22:48:49.731Z,6.38
2022-09-07T22:51:17.173Z,5.53
2022-09-07T22:53:44.333Z,3.95
2022-09-07T22:56:17.144Z,6.10
2022-09-07T22:58:52.545Z,5.22
2022-09-07T23:01:20.944Z,6.15
2022-09-07T23:03:48.341Z,4.85
2022-09-07T23:06:30.754Z,4.45
2022-09-07T23:08:58.971Z,2.83
2022-09-07T23:11:26.694Z,3.22
2022-09-07T23:13:58.881Z,2.92
2022-09-07T23:16:28.027Z,3.55
2022-09-07T23:18:55.933Z,2.67
2022-09-07T23:21:22.811Z,3.45
2022-09-07T23:23:54.776Z,4.30
2022-09-07T23:26:23.385Z,2.35
2022-09-07T23:28:54.809Z,2.65
2022-09-07T23:31:23.271Z,5.70
2022-09-07T23:33:50.467Z,6.28
2022-09-07T23:36:18.404Z,2.85
2022-09-07T23:38:46.289Z,3.88
2022-09-07T23:41:14.184Z,1.95
2022-09-07T23:43:41.674Z,4.10
2022-09-07T23:46:09.604Z,3.47
2022-09-07T23:48:36.608Z,2.53
2022-09-07T23:51:03.431Z,3.40
2022-09-07T23:53:30.266Z,3.50
2022-09-07T23:55:57.154Z,3.90
2022-09-07T23:58:24.083Z,3.08
